createdAt,value
2019-02-02T00:00:07.602Z,12.53
2019-02-02T00:02:36.613Z,12.62
2019-02-02T00:05:05.736Z,12.58
2019-02-02T00:07:34.836Z,12.48
2019-02-02T00:10:03.793Z,12.47
2019-02-02T00:12:32.925Z,12.45
2019-02-02T00:15:02.025Z,12.35
2019-02-02T00:17:31.183Z,12.28
2019-02-02T00:20:00.433Z,12.27
2019-02-02T00:22:29.632Z,12.31
2019-02-02T00:24:58.732Z,12.32
2019-02-02T00:27:27.712Z,12.34
2019-02-02T00:29:56.705Z,12.37
2019-02-02T00:32:25.663Z,12.34
2019-02-02T00:34:54.695Z,12.37
2019-02-02T00:37:23.885Z,12.32
2019-02-02T00:39:52.901Z,12.28
2019-02-02T00:42:21.914Z,12.25
2019-02-02T00:44:51.173Z,12.25
2019-02-02T00:47:20.384Z,12.30
2019-02-02T00:49:49.576Z,12.47
2019-02-02T00:52:18.665Z,12.45
2019-02-02T00:54:47.757Z,12.40
2019-02-02T00:57:16.927Z,12.37
2019-02-02T00:59:46.495Z,12.35
2019-02-02T01:02:16.070Z,12.41
2019-02-02T01:04:45.045Z,12.57
2019-02-02T01:07:14.157Z,12.64
2019-02-02T01:09:43.115Z,12.57
2019-02-02T01:12:12.146Z,12.45
2019-02-02T01:14:41.154Z,12.46
2019-02-02T01:17:10.208Z,12.46
2019-02-02T01:19:39.303Z,12.51
2019-02-02T01:22:08.294Z,12.63
2019-02-02T01:24:37.316Z,12.76
2019-02-02T01:27:07.242Z,12.97
2019-02-02T01:29:37.648Z,13.20
2019-02-02T01:32:07.670Z,13.49
2019-02-02T01:34:36.898Z,13.75
2019-02-02T01:37:07.171Z,13.91
2019-02-02T01:39:36.541Z,13.99
2019-02-02T01:42:06.498Z,14.18
2019-02-02T01:44:36.095Z,14.37
2019-02-02T01:47:05.893Z,14.57
2019-02-02T01:49:35.865Z,14.84
2019-02-02T01:52:06.064Z,15.23
2019-02-02T01:54:38.243Z,15.33
2019-02-02T01:57:05.677Z,15.35
2019-02-02T01:59:35.700Z,15.48
2019-02-02T02:02:05.812Z,15.58
2019-02-02T02:04:35.662Z,15.68
2019-02-02T02:07:05.573Z,15.80
2019-02-02T02:09:35.447Z,16.06
2019-02-02T02:12:05.179Z,16.54
2019-02-02T02:14:35.224Z,17.08
2019-02-02T02:17:05.415Z,17.64
2019-02-02T02:19:35.438Z,18.24
2019-02-02T02:22:05.347Z,18.76
2019-02-02T02:24:35.573Z,19.21
2019-02-02T02:27:05.710Z,19.58
2019-02-02T02:29:36.407Z,19.92
2019-02-02T02:32:06.685Z,20.39
2019-02-02T02:34:36.235Z,20.90
2019-02-02T02:37:06.277Z,21.16
2019-02-02T02:39:36.617Z,21.53
2019-02-02T02:42:06.495Z,22.08
2019-02-02T02:44:35.746Z,22.50
2019-02-02T02:47:05.862Z,22.79
2019-02-02T02:49:34.974Z,23.07
2019-02-02T02:52:04.114Z,23.28
2019-02-02T02:54:33.482Z,23.52
2019-02-02T02:57:03.041Z,23.92
2019-02-02T02:59:32.504Z,24.21
2019-02-02T03:02:02.232Z,24.58
2019-02-02T03:04:31.345Z,24.76
2019-02-02T03:07:01.245Z,25.06
2019-02-02T03:09:30.680Z,25.31
2019-02-02T03:12:01.056Z,25.33
2019-02-02T03:14:30.887Z,25.48
2019-02-02T03:17:01.130Z,25.67
2019-02-02T03:19:31.236Z,25.67
2019-02-02T03:22:01.325Z,25.80
2019-02-02T03:24:31.332Z,25.55
2019-02-02T03:27:01.503Z,25.66
2019-02-02T03:29:30.993Z,25.78
2019-02-02T03:32:01.246Z,25.76
2019-02-02T03:34:31.741Z,25.64
2019-02-02T03:37:01.004Z,25.74
2019-02-02T03:39:30.248Z,25.81
2019-02-02T03:41:59.675Z,26.15
2019-02-02T03:44:28.674Z,26.14
2019-02-02T03:46:58.168Z,26.30
2019-02-02T03:49:28.125Z,26.18
2019-02-02T03:51:57.256Z,25.57
2019-02-02T03:54:27.551Z,26.10
2019-02-02T03:56:57.388Z,26.43
2019-02-02T03:59:27.323Z,26.61
2019-02-02T04:01:57.732Z,26.79
2019-02-02T04:04:27.910Z,26.67
2019-02-02T04:06:57.936Z,26.71
2019-02-02T04:09:27.744Z,26.79
2019-02-02T04:11:57.778Z,26.55
2019-02-02T04:14:27.597Z,26.85
2019-02-02T04:16:57.197Z,26.99
2019-02-02T04:19:27.438Z,27.22
2019-02-02T04:21:57.428Z,26.99
2019-02-02T04:24:27.362Z,27.04
2019-02-02T04:26:57.072Z,26.94
2019-02-02T04:29:27.263Z,27.14
2019-02-02T04:31:57.411Z,27.27
2019-02-02T04:34:27.404Z,27.11
2019-02-02T04:36:57.141Z,27.18
2019-02-02T04:39:27.443Z,27.29
2019-02-02T04:41:57.407Z,27.66
2019-02-02T04:44:27.275Z,27.65
2019-02-02T04:46:57.198Z,27.77
2019-02-02T04:49:27.260Z,27.83
2019-02-02T04:51:57.101Z,27.95
2019-02-02T04:54:27.256Z,27.88
2019-02-02T04:56:57.451Z,28.05
2019-02-02T04:59:29.389Z,28.21
2019-02-02T05:01:58.062Z,28.19
2019-02-02T05:04:28.138Z,28.32
2019-02-02T05:06:58.061Z,28.54
2019-02-02T05:09:28.053Z,28.71
2019-02-02T05:11:57.915Z,28.79
2019-02-02T05:14:28.025Z,28.68
2019-02-02T05:16:58.307Z,28.47
2019-02-02T05:19:27.988Z,28.62
2019-02-02T05:21:58.061Z,28.69
2019-02-02T05:24:27.814Z,28.34
2019-02-02T05:26:57.773Z,28.36
2019-02-02T05:29:28.193Z,28.57
2019-02-02T05:32:00.204Z,28.97
2019-02-02T05:34:30.992Z,28.98
2019-02-02T05:37:00.447Z,28.67
2019-02-02T05:39:30.312Z,29.32
2019-02-02T05:41:59.808Z,28.97
2019-02-02T05:44:29.616Z,28.86
2019-02-02T05:46:59.427Z,29.09
2019-02-02T05:49:29.565Z,29.48
2019-02-02T05:51:59.203Z,29.38
2019-02-02T05:54:29.166Z,29.55
2019-02-02T05:56:58.983Z,29.63
2019-02-02T05:59:28.924Z,29.67
2019-02-02T06:01:58.904Z,29.44
2019-02-02T06:04:29.084Z,28.64
2019-02-02T06:06:59.046Z,29.03
2019-02-02T06:09:28.834Z,28.77
2019-02-02T06:11:58.774Z,29.13
2019-02-02T06:14:28.592Z,29.31
2019-02-02T06:16:58.443Z,29.27
2019-02-02T06:19:28.178Z,29.73
2019-02-02T06:21:57.924Z,29.94
2019-02-02T06:24:27.747Z,29.82
2019-02-02T06:26:57.224Z,30.14
2019-02-02T06:29:27.053Z,30.20
2019-02-02T06:31:56.361Z,30.43
2019-02-02T06:34:25.712Z,30.40
2019-02-02T06:36:55.778Z,30.24
2019-02-02T06:39:25.727Z,30.35
2019-02-02T06:41:55.813Z,30.36
2019-02-02T06:44:25.610Z,30.37
2019-02-02T06:46:55.568Z,30.26
2019-02-02T06:49:25.791Z,30.26
2019-02-02T06:51:55.380Z,30.35
2019-02-02T06:54:25.104Z,30.36
2019-02-02T06:56:55.093Z,30.32
2019-02-02T06:59:24.456Z,30.66
2019-02-02T07:01:53.972Z,30.88
2019-02-02T07:04:23.399Z,30.40
2019-02-02T07:06:53.362Z,30.78
2019-02-02T07:09:23.134Z,30.81
2019-02-02T07:11:52.800Z,30.88
2019-02-02T07:14:22.452Z,30.95
2019-02-02T07:16:52.161Z,30.79
2019-02-02T07:19:22.267Z,30.68
2019-02-02T07:21:52.037Z,30.86
2019-02-02T07:24:21.403Z,30.79
2019-02-02T07:26:51.247Z,30.50
2019-02-02T07:29:20.794Z,30.24
2019-02-02T07:31:50.640Z,30.40
2019-02-02T07:34:20.402Z,30.55
2019-02-02T07:36:50.052Z,30.37
2019-02-02T07:39:19.850Z,30.41
2019-02-02T07:41:50.118Z,30.54
2019-02-02T07:44:22.949Z,30.59
2019-02-02T07:46:54.302Z,30.50
2019-02-02T07:49:24.180Z,30.35
2019-02-02T07:52:03.081Z,30.48
2019-02-02T07:54:33.275Z,30.64
2019-02-02T07:57:03.384Z,30.67
2019-02-02T07:59:33.793Z,30.73
2019-02-02T08:02:03.405Z,30.76
2019-02-02T08:04:32.828Z,30.54
2019-02-02T08:07:02.740Z,30.50
2019-02-02T08:09:32.642Z,30.59
2019-02-02T08:12:02.472Z,30.51
2019-02-02T08:14:34.529Z,30.37
2019-02-02T08:17:05.222Z,30.34
2019-02-02T08:19:37.059Z,30.38
2019-02-02T08:22:13.532Z,30.43
2019-02-02T08:24:44.436Z,30.55
2019-02-02T08:27:14.037Z,30.31
2019-02-02T08:29:43.726Z,30.40
2019-02-02T08:32:14.865Z,30.25
2019-02-02T08:34:44.580Z,30.26
2019-02-02T08:37:13.788Z,30.36
2019-02-02T08:39:43.697Z,30.17
2019-02-02T08:42:13.832Z,30.40
2019-02-02T08:44:43.705Z,30.63
2019-02-02T08:47:13.648Z,30.60
2019-02-02T08:49:43.357Z,30.69
2019-02-02T08:52:15.956Z,30.63
2019-02-02T08:54:45.468Z,30.63
2019-02-02T08:57:14.906Z,30.11
2019-02-02T08:59:46.893Z,30.34
2019-02-02T09:02:17.461Z,30.46
2019-02-02T09:04:47.991Z,30.07
2019-02-02T09:07:19.013Z,30.09
2019-02-02T09:09:49.459Z,30.20
2019-02-02T09:12:19.302Z,30.17
2019-02-02T09:14:49.481Z,30.28
2019-02-02T09:17:19.100Z,30.22
2019-02-02T09:19:48.863Z,30.07
2019-02-02T09:22:18.652Z,29.85
2019-02-02T09:24:51.701Z,29.85
2019-02-02T09:27:20.741Z,29.85
2019-02-02T09:29:51.268Z,29.82
2019-02-02T09:32:21.120Z,29.86
2019-02-02T09:34:50.790Z,29.89
2019-02-02T09:37:20.222Z,29.73
2019-02-02T09:39:51.276Z,29.75
2019-02-02T09:42:22.163Z,29.76
2019-02-02T09:44:52.389Z,29.02
2019-02-02T09:47:23.094Z,29.19
2019-02-02T09:49:59.712Z,29.28
2019-02-02T09:52:31.959Z,29.27
2019-02-02T09:55:01.986Z,29.15
2019-02-02T09:57:31.755Z,29.08
2019-02-02T10:00:02.883Z,28.97
2019-02-02T10:02:41.210Z,28.84
2019-02-02T10:05:11.633Z,28.91
2019-02-02T10:07:41.668Z,28.90
2019-02-02T10:10:12.041Z,28.87
2019-02-02T10:12:42.952Z,28.78
2019-02-02T10:15:12.721Z,28.74
2019-02-02T10:17:42.628Z,28.64
2019-02-02T10:20:12.702Z,28.62
2019-02-02T10:22:45.250Z,28.57
2019-02-02T10:25:15.538Z,28.60
2019-02-02T10:27:45.551Z,28.64
2019-02-02T10:30:15.588Z,28.66
2019-02-02T10:32:46.068Z,28.81
2019-02-02T10:35:17.386Z,28.76
2019-02-02T10:37:47.096Z,28.71
2019-02-02T10:40:17.285Z,28.75
2019-02-02T10:42:46.998Z,28.70
2019-02-02T10:45:16.505Z,28.66
2019-02-02T10:47:46.954Z,28.60
2019-02-02T10:50:17.053Z,28.48
2019-02-02T10:52:46.551Z,28.36
2019-02-02T10:55:16.378Z,28.24
2019-02-02T10:57:46.210Z,28.08
2019-02-02T11:00:15.769Z,27.95
2019-02-02T11:02:45.478Z,27.91
2019-02-02T11:05:15.689Z,27.88
2019-02-02T11:07:45.646Z,27.89
2019-02-02T11:10:18.097Z,27.85
2019-02-02T11:12:46.393Z,27.75
2019-02-02T11:15:16.551Z,27.52
2019-02-02T11:17:46.923Z,27.36
2019-02-02T11:20:17.614Z,27.17
2019-02-02T11:22:46.803Z,26.90
2019-02-02T11:25:16.554Z,26.58
2019-02-02T11:27:46.729Z,26.35
2019-02-02T11:30:17.173Z,26.09
2019-02-02T11:32:46.948Z,25.84
2019-02-02T11:35:17.256Z,25.58
2019-02-02T11:37:47.502Z,25.33
2019-02-02T11:40:17.824Z,25.06
2019-02-02T11:42:47.617Z,24.84
2019-02-02T11:45:17.728Z,24.62
2019-02-02T11:47:47.619Z,24.46
2019-02-02T11:50:18.262Z,24.22
2019-02-02T11:52:47.906Z,24.05
2019-02-02T11:55:17.623Z,23.76
2019-02-02T11:57:50.040Z,23.55
2019-02-02T12:00:18.949Z,23.34
2019-02-02T12:02:49.527Z,23.20
2019-02-02T12:05:18.494Z,23.10
2019-02-02T12:07:48.414Z,22.92
2019-02-02T12:10:18.611Z,22.72
2019-02-02T12:12:48.327Z,22.54
2019-02-02T12:15:18.419Z,22.40
2019-02-02T12:17:47.953Z,22.27
2019-02-02T12:20:17.627Z,22.19
2019-02-02T12:22:48.083Z,22.05
2019-02-02T12:25:18.213Z,21.90
2019-02-02T12:27:48.463Z,21.75
2019-02-02T12:30:17.523Z,21.50
2019-02-02T12:32:47.047Z,21.33
2019-02-02T12:35:16.089Z,21.22
2019-02-02T12:37:46.322Z,21.10
2019-02-02T12:40:16.139Z,21.09
2019-02-02T12:42:46.530Z,21.01
2019-02-02T12:45:16.099Z,20.93
2019-02-02T12:47:45.558Z,20.82
2019-02-02T12:50:14.711Z,20.76
2019-02-02T12:52:45.905Z,20.71
2019-02-02T12:55:15.926Z,20.62
2019-02-02T12:57:45.163Z,20.51
2019-02-02T13:00:20.420Z,20.46
2019-02-02T13:02:56.229Z,20.39
2019-02-02T13:05:26.268Z,20.31
2019-02-02T13:07:55.916Z,20.25
2019-02-02T13:10:25.472Z,20.15
2019-02-02T13:12:57.962Z,20.06
2019-02-02T13:15:27.688Z,20.00
2019-02-02T13:18:01.127Z,19.93
2019-02-02T13:20:31.211Z,19.84
2019-02-02T13:23:00.115Z,19.77
2019-02-02T13:25:29.560Z,19.69
2019-02-02T13:27:59.668Z,19.56
2019-02-02T13:30:30.102Z,19.44
2019-02-02T13:32:59.570Z,19.38
2019-02-02T13:35:29.442Z,19.30
2019-02-02T13:37:58.513Z,19.20
2019-02-02T13:40:27.721Z,19.14
2019-02-02T13:42:58.389Z,19.09
2019-02-02T13:45:29.408Z,19.06
2019-02-02T13:48:04.654Z,19.05
2019-02-02T13:50:40.106Z,19.09
2019-02-02T13:53:13.722Z,19.13
2019-02-02T13:55:49.050Z,19.03
2019-02-02T13:58:19.283Z,18.99
2019-02-02T14:00:54.051Z,18.84
2019-02-02T14:03:31.035Z,18.74
2019-02-02T14:06:05.118Z,18.72
2019-02-02T14:08:36.087Z,18.70
2019-02-02T14:11:06.009Z,18.61
2019-02-02T14:13:35.306Z,18.66
2019-02-02T14:16:04.278Z,18.65
2019-02-02T14:18:38.683Z,18.46
2019-02-02T14:21:12.321Z,18.38
2019-02-02T14:23:45.644Z,18.34
2019-02-02T14:28:48.469Z,18.29
2019-02-02T14:33:51.738Z,18.18
2019-02-02T14:36:22.127Z,18.16
2019-02-02T14:38:51.655Z,18.12
2019-02-02T14:41:20.846Z,18.08
2019-02-02T14:43:51.368Z,18.05
2019-02-02T14:46:23.454Z,18.01
2019-02-02T14:51:26.235Z,17.85
2019-02-02T14:53:55.416Z,17.86
2019-02-02T14:56:26.483Z,17.82
2019-02-02T14:58:57.039Z,17.77
2019-02-02T15:03:59.086Z,17.74
2019-02-02T15:09:03.813Z,17.59
2019-02-02T15:11:33.931Z,17.58
2019-02-02T15:19:08.831Z,17.38
2019-02-02T15:21:37.991Z,17.34
2019-02-02T15:26:39.781Z,17.23
2019-02-02T15:29:10.530Z,17.24
2019-02-02T15:34:12.493Z,17.24
2019-02-02T15:36:42.899Z,17.24
2019-02-02T15:41:52.573Z,17.17
2019-02-02T15:44:15.427Z,17.14
2019-02-02T15:46:49.131Z,17.15
2019-02-02T15:49:14.835Z,17.13
2019-02-02T15:51:44.008Z,17.11
2019-02-02T15:54:12.918Z,17.04
2019-02-02T15:56:42.728Z,17.00
2019-02-02T15:59:12.974Z,16.99
2019-02-02T16:01:42.872Z,16.96
2019-02-02T16:04:13.222Z,16.94
2019-02-02T16:06:43.188Z,16.86
2019-02-02T16:09:13.048Z,16.78
2019-02-02T16:11:43.077Z,16.70
2019-02-02T16:14:13.481Z,16.59
2019-02-02T16:16:43.602Z,16.51
2019-02-02T16:19:13.944Z,16.49
2019-02-02T16:21:43.982Z,16.47
2019-02-02T16:24:13.537Z,16.44
2019-02-02T16:26:43.170Z,16.42
2019-02-02T16:29:12.863Z,16.38
2019-02-02T16:31:43.119Z,16.32
2019-02-02T16:34:13.115Z,16.29
2019-02-02T16:36:42.934Z,16.22
2019-02-02T16:39:13.028Z,16.06
2019-02-02T16:41:42.739Z,15.92
2019-02-02T16:44:13.178Z,15.92
2019-02-02T16:46:43.545Z,15.91
2019-02-02T16:49:13.607Z,15.93
2019-02-02T16:51:43.019Z,15.94
2019-02-02T16:54:13.123Z,15.86
2019-02-02T16:56:43.593Z,15.81
2019-02-02T16:59:13.467Z,15.76
2019-02-02T17:01:44.249Z,15.67
2019-02-02T17:04:16.171Z,15.64
2019-02-02T17:06:45.887Z,15.66
2019-02-02T17:09:18.255Z,15.66
2019-02-02T17:11:48.599Z,15.69
2019-02-02T17:14:19.017Z,15.68
2019-02-02T17:16:48.706Z,15.64
2019-02-02T17:19:19.421Z,15.69
2019-02-02T17:21:49.860Z,15.67
2019-02-02T17:24:22.156Z,15.61
2019-02-02T17:26:52.504Z,15.46
2019-02-02T17:29:23.507Z,15.31
2019-02-02T17:31:53.405Z,15.33
2019-02-02T17:34:27.363Z,15.37
2019-02-02T17:36:55.688Z,15.40
2019-02-02T17:39:27.057Z,15.40
2019-02-02T17:41:57.382Z,15.39
2019-02-02T17:44:27.025Z,15.41
2019-02-02T17:46:57.323Z,15.40
2019-02-02T17:49:28.106Z,15.42
2019-02-02T17:51:57.610Z,15.44
2019-02-02T17:54:27.595Z,15.44
2019-02-02T17:56:58.607Z,15.45
2019-02-02T17:59:30.114Z,15.41
2019-02-02T18:01:58.956Z,15.33
2019-02-02T18:04:38.839Z,15.32
2019-02-02T18:07:00.192Z,15.26
2019-02-02T18:09:30.958Z,15.22
2019-02-02T18:12:02.657Z,15.16
2019-02-02T18:14:32.881Z,15.25
2019-02-02T18:17:02.533Z,15.27
2019-02-02T18:22:06.959Z,15.23
2019-02-02T18:24:36.928Z,15.22
2019-02-02T18:27:06.791Z,15.16
2019-02-02T18:29:37.011Z,15.11
2019-02-02T18:32:13.213Z,15.12
2019-02-02T18:34:38.076Z,15.10
2019-02-02T18:37:09.277Z,15.11
2019-02-02T18:39:40.228Z,15.09
2019-02-02T18:42:12.256Z,15.03
2019-02-02T18:44:42.256Z,14.98
2019-02-02T18:47:11.867Z,14.94
2019-02-02T18:49:41.908Z,14.91
2019-02-02T18:52:12.454Z,14.83
2019-02-02T18:54:41.941Z,14.78
2019-02-02T18:57:12.431Z,14.76
2019-02-02T18:59:42.544Z,14.74
2019-02-02T19:02:13.250Z,14.75
2019-02-02T19:04:43.188Z,14.73
2019-02-02T19:07:12.588Z,14.74
2019-02-02T19:09:42.476Z,14.78
2019-02-02T19:12:12.549Z,14.81
